createdAt,value
2023-01-13T00:00:26.644Z,100.00
2023-01-13T00:02:54.341Z,100.00
2023-01-13T00:05:22.147Z,100.00
2023-01-13T00:07:49.801Z,100.00
2023-01-13T00:10:17.470Z,100.00
2023-01-13T00:12:45.173Z,100.00
2023-01-13T00:15:13.532Z,100.00
2023-01-13T00:17:41.139Z,100.00
2023-01-13T00:20:10.568Z,100.00
2023-01-13T00:22:38.231Z,100.00
2023-01-13T00:25:06.793Z,100.00
2023-01-13T00:27:34.677Z,100.00
2023-01-13T00:30:03.319Z,100.00
2023-01-13T00:32:31.111Z,100.00
2023-01-13T00:34:59.120Z,100.00
2023-01-13T00:37:27.222Z,100.00
2023-01-13T00:39:54.861Z,100.00
2023-01-13T00:42:41.119Z,100.00
2023-01-13T00:45:09.073Z,100.00
2023-01-13T00:47:36.682Z,100.00
2023-01-13T00:50:04.664Z,100.00
2023-01-13T00:52:33.080Z,100.00
2023-01-13T00:55:01.060Z,100.00
2023-01-13T00:57:28.689Z,100.00
2023-01-13T00:59:56.478Z,100.00
2023-01-13T01:02:24.196Z,100.00
2023-01-13T01:04:51.955Z,100.00
2023-01-13T01:07:19.571Z,100.00
2023-01-13T01:09:47.224Z,100.00
2023-01-13T01:12:14.858Z,100.00
2023-01-13T01:14:42.509Z,100.00
2023-01-13T01:17:10.125Z,100.00
2023-01-13T01:19:38.922Z,100.00
2023-01-13T01:22:06.706Z,100.00
2023-01-13T01:24:34.389Z,100.00
2023-01-13T01:27:02.119Z,100.00
2023-01-13T01:29:29.783Z,100.00
2023-01-13T01:31:59.222Z,100.00
2023-01-13T01:34:27.089Z,100.00
2023-01-13T01:36:54.744Z,100.00
2023-01-13T01:39:22.433Z,100.00
2023-01-13T01:42:08.991Z,100.00
2023-01-13T01:44:42.681Z,100.00
2023-01-13T01:47:14.009Z,100.00
2023-01-13T01:49:43.542Z,100.00
2023-01-13T01:52:16.819Z,100.00
2023-01-13T01:54:48.162Z,100.00
2023-01-13T01:57:26.778Z,100.00
2023-01-13T01:59:54.908Z,99.72
2023-01-13T02:02:23.024Z,100.00
2023-01-13T02:04:53.586Z,99.92
2023-01-13T02:07:25.491Z,100.00
2023-01-13T02:09:55.941Z,99.95
2023-01-13T02:12:34.843Z,99.80
2023-01-13T02:15:15.391Z,99.99
2023-01-13T02:17:55.105Z,100.00
2023-01-13T02:20:31.832Z,99.15
2023-01-13T02:24:02.909Z,99.20
2023-01-13T02:26:42.245Z,99.60
2023-01-13T02:30:03.311Z,99.41
2023-01-13T02:32:55.751Z,99.80
2023-01-13T02:35:27.475Z,99.68
2023-01-13T02:37:57.485Z,99.81
2023-01-13T02:40:37.061Z,99.56
2023-01-13T02:43:29.543Z,99.74
2023-01-13T02:46:20.122Z,99.77
2023-01-13T02:48:50.198Z,99.94
2023-01-13T02:51:22.332Z,99.90
2023-01-13T02:54:16.671Z,99.27
2023-01-13T02:56:48.554Z,99.47
2023-01-13T02:59:16.901Z,99.14
2023-01-13T03:01:45.818Z,98.98
2023-01-13T03:04:46.639Z,98.62
2023-01-13T03:07:57.373Z,98.82
2023-01-13T03:10:32.997Z,98.86
2023-01-13T03:13:42.870Z,97.98
2023-01-13T03:16:29.308Z,98.18
2023-01-13T03:19:15.318Z,98.44
2023-01-13T03:21:53.746Z,98.58
2023-01-13T03:24:21.369Z,98.36
2023-01-13T03:27:09.900Z,98.13
2023-01-13T03:29:46.312Z,97.75
2023-01-13T03:32:24.535Z,97.97
2023-01-13T03:34:58.286Z,98.13
2023-01-13T03:37:33.997Z,98.08
2023-01-13T03:40:07.761Z,97.71
2023-01-13T03:42:38.479Z,97.56
2023-01-13T03:45:19.690Z,97.16
2023-01-13T03:48:16.378Z,97.32
2023-01-13T03:51:07.060Z,97.39
2023-01-13T03:53:47.689Z,97.42
2023-01-13T03:56:41.483Z,97.68
2023-01-13T03:59:15.544Z,97.88
2023-01-13T04:02:09.476Z,97.68
2023-01-13T04:04:50.669Z,97.46
2023-01-13T04:07:46.590Z,97.55
2023-01-13T04:10:19.963Z,97.91
2023-01-13T04:13:03.199Z,97.53
2023-01-13T04:15:41.283Z,97.80
2023-01-13T04:18:11.796Z,97.58
2023-01-13T04:20:40.224Z,97.48
2023-01-13T04:23:08.859Z,97.54
2023-01-13T04:25:36.778Z,97.58
2023-01-13T04:28:04.701Z,97.56
2023-01-13T04:30:32.383Z,97.41
2023-01-13T04:33:00.008Z,97.75
2023-01-13T04:35:27.782Z,97.21
2023-01-13T04:37:55.293Z,97.60
2023-01-13T04:40:22.923Z,97.55
2023-01-13T04:42:50.485Z,97.73
2023-01-13T04:45:18.121Z,97.87
2023-01-13T04:47:45.715Z,97.92
2023-01-13T04:50:13.727Z,98.04
2023-01-13T04:52:41.325Z,97.69
2023-01-13T04:55:10.545Z,98.24
2023-01-13T04:57:38.253Z,98.32
2023-01-13T05:00:07.521Z,97.85
2023-01-13T05:02:35.078Z,98.20
2023-01-13T05:05:02.762Z,98.27
2023-01-13T05:07:30.707Z,98.37
2023-01-13T05:09:58.293Z,98.32
2023-01-13T05:12:44.468Z,98.44
2023-01-13T05:15:32.611Z,98.37
2023-01-13T05:18:01.312Z,98.29
2023-01-13T05:20:28.879Z,98.36
2023-01-13T05:23:15.439Z,98.25
2023-01-13T05:25:44.529Z,98.61
2023-01-13T05:28:12.247Z,98.21
2023-01-13T05:30:42.730Z,98.44
2023-01-13T05:33:11.512Z,98.16
2023-01-13T05:35:41.088Z,98.29
2023-01-13T05:38:09.285Z,97.95
2023-01-13T05:40:59.044Z,98.16
2023-01-13T05:43:27.907Z,97.79
2023-01-13T05:46:08.145Z,97.36
2023-01-13T05:48:38.594Z,97.29
2023-01-13T05:51:08.383Z,96.99
2023-01-13T05:53:36.680Z,97.09
2023-01-13T05:56:06.219Z,96.94
2023-01-13T05:58:34.359Z,96.99
2023-01-13T06:01:07.834Z,97.07
2023-01-13T06:03:36.543Z,97.10
2023-01-13T06:06:04.826Z,96.99
2023-01-13T06:08:32.931Z,96.61
2023-01-13T06:11:00.618Z,96.75
2023-01-13T06:13:28.220Z,97.06
2023-01-13T06:15:57.797Z,97.23
2023-01-13T06:18:26.096Z,97.21
2023-01-13T06:20:53.835Z,97.86
2023-01-13T06:23:21.495Z,97.78
2023-01-13T06:26:07.114Z,97.61
2023-01-13T06:28:35.027Z,97.61
2023-01-13T06:31:06.573Z,97.76
2023-01-13T06:33:39.159Z,97.93
2023-01-13T06:36:19.397Z,97.78
2023-01-13T06:38:50.038Z,97.77
2023-01-13T06:41:38.635Z,97.54
2023-01-13T06:44:06.626Z,97.49
2023-01-13T06:46:35.197Z,97.80
2023-01-13T06:49:02.998Z,97.16
2023-01-13T06:51:30.612Z,97.06
2023-01-13T06:53:58.225Z,97.29
2023-01-13T06:56:25.769Z,97.62
2023-01-13T06:58:53.662Z,97.35
2023-01-13T07:01:21.384Z,97.05
2023-01-13T07:03:49.062Z,97.59
2023-01-13T07:06:16.643Z,97.10
2023-01-13T07:08:44.260Z,96.94
2023-01-13T07:11:11.827Z,97.35
2023-01-13T07:13:57.886Z,97.09
2023-01-13T07:16:28.176Z,97.58
2023-01-13T07:18:56.937Z,97.71
2023-01-13T07:21:24.532Z,97.56
2023-01-13T07:23:52.146Z,97.78
2023-01-13T07:26:19.888Z,97.80
2023-01-13T07:28:47.514Z,97.44
2023-01-13T07:31:18.480Z,97.42
2023-01-13T07:33:46.557Z,97.13
2023-01-13T07:36:14.937Z,97.20
2023-01-13T07:38:44.632Z,97.39
2023-01-13T07:41:32.953Z,96.82
2023-01-13T07:44:02.881Z,97.43
2023-01-13T07:46:31.001Z,97.30
2023-01-13T07:48:58.674Z,97.13
2023-01-13T07:51:26.497Z,97.76
2023-01-13T07:53:54.253Z,98.02
2023-01-13T07:56:21.868Z,97.60
2023-01-13T07:58:51.221Z,98.13
2023-01-13T08:01:19.391Z,97.95
2023-01-13T08:03:47.425Z,98.31
2023-01-13T08:06:15.311Z,98.90
2023-01-13T08:08:42.907Z,98.47
2023-01-13T08:11:10.659Z,98.89
2023-01-13T08:13:38.214Z,98.79
2023-01-13T08:16:11.811Z,99.15
2023-01-13T08:18:39.943Z,99.19
2023-01-13T08:21:13.911Z,98.75
2023-01-13T08:23:43.129Z,98.85
2023-01-13T08:26:13.852Z,98.98
2023-01-13T08:28:41.611Z,99.03
2023-01-13T08:31:12.458Z,98.83
2023-01-13T08:33:40.665Z,98.99
2023-01-13T08:36:11.164Z,98.73
2023-01-13T08:38:39.762Z,98.36
2023-01-13T08:41:12.414Z,98.12
2023-01-13T08:43:40.178Z,98.54
2023-01-13T08:46:07.931Z,98.17
2023-01-13T08:48:36.107Z,98.21
2023-01-13T08:51:09.127Z,98.40
2023-01-13T08:53:36.984Z,98.81
2023-01-13T08:56:11.857Z,98.97
2023-01-13T08:58:40.759Z,98.99
2023-01-13T09:01:10.762Z,98.98
2023-01-13T09:03:39.456Z,99.20
2023-01-13T09:06:07.105Z,99.16
2023-01-13T09:08:34.943Z,99.40
2023-01-13T09:11:22.728Z,99.36
2023-01-13T09:13:50.592Z,99.63
2023-01-13T09:16:18.512Z,99.61
2023-01-13T09:18:46.327Z,99.52
2023-01-13T09:21:15.259Z,99.50
2023-01-13T09:23:43.016Z,99.32
2023-01-13T09:26:11.763Z,99.69
2023-01-13T09:28:39.402Z,99.64
2023-01-13T09:31:07.398Z,99.54
2023-01-13T09:33:53.664Z,99.33
2023-01-13T09:36:21.639Z,99.52
2023-01-13T09:38:50.383Z,99.56
2023-01-13T09:41:42.370Z,99.95
2023-01-13T09:44:16.741Z,99.88
2023-01-13T09:46:49.368Z,99.80
2023-01-13T09:49:24.189Z,99.76
2023-01-13T09:51:59.116Z,99.60
2023-01-13T09:54:52.017Z,99.38
2023-01-13T09:57:21.465Z,99.75
2023-01-13T09:59:49.423Z,100.00
2023-01-13T10:02:55.586Z,99.75
2023-01-13T10:05:36.794Z,99.48
2023-01-13T10:08:21.037Z,99.53
2023-01-13T10:10:51.637Z,99.71
2023-01-13T10:13:22.779Z,98.91
2023-01-13T10:15:56.679Z,99.41
2023-01-13T10:18:33.226Z,99.58
2023-01-13T10:21:31.775Z,99.66
2023-01-13T10:24:17.997Z,99.58
2023-01-13T10:26:54.764Z,99.13
2023-01-13T10:29:28.441Z,99.10
2023-01-13T10:31:58.162Z,99.29
2023-01-13T10:34:27.768Z,99.80
2023-01-13T10:37:00.318Z,99.45
2023-01-13T10:39:28.656Z,99.24
2023-01-13T10:42:04.696Z,98.55
2023-01-13T10:44:32.452Z,98.60
2023-01-13T10:47:00.216Z,97.74
2023-01-13T10:49:37.091Z,98.16
2023-01-13T10:52:25.586Z,97.00
2023-01-13T10:54:55.227Z,94.63
2023-01-13T10:57:27.816Z,93.11
2023-01-13T10:59:56.454Z,92.64
2023-01-13T11:02:33.089Z,90.11
2023-01-13T11:05:22.951Z,89.43
2023-01-13T11:07:54.585Z,89.82
2023-01-13T11:10:24.355Z,88.95
2023-01-13T11:13:13.850Z,88.05
2023-01-13T11:16:00.177Z,88.32
2023-01-13T11:19:02.493Z,85.63
2023-01-13T11:21:38.104Z,86.63
2023-01-13T11:24:21.660Z,85.33
2023-01-13T11:27:01.971Z,84.65
2023-01-13T11:29:41.643Z,85.10
2023-01-13T11:32:20.153Z,84.02
2023-01-13T11:35:02.257Z,84.82
2023-01-13T11:37:36.317Z,85.63
2023-01-13T11:40:12.102Z,85.07
2023-01-13T11:43:00.072Z,85.28
2023-01-13T11:45:42.494Z,84.68
2023-01-13T11:48:17.701Z,85.18
2023-01-13T11:51:05.521Z,86.06
2023-01-13T11:54:00.924Z,86.58
2023-01-13T11:56:43.667Z,88.25
2023-01-13T11:59:35.592Z,88.50
2023-01-13T12:02:18.612Z,87.22
2023-01-13T12:05:06.721Z,86.96
2023-01-13T12:07:52.758Z,87.66
2023-01-13T12:10:40.792Z,86.81
2023-01-13T12:13:14.519Z,85.84
2023-01-13T12:16:03.279Z,84.00
2023-01-13T12:19:16.239Z,82.94
2023-01-13T12:22:23.715Z,82.11
2023-01-13T12:25:02.873Z,83.12
2023-01-13T12:27:55.519Z,83.62
2023-01-13T12:30:37.220Z,84.17
2023-01-13T12:33:42.504Z,84.26
2023-01-13T12:36:26.990Z,85.31
2023-01-13T12:39:04.042Z,86.04
2023-01-13T12:42:30.030Z,86.65
2023-01-13T12:45:12.924Z,86.29
2023-01-13T12:47:43.731Z,85.73
2023-01-13T12:50:37.531Z,84.55
2023-01-13T12:53:29.663Z,85.39
2023-01-13T12:56:40.279Z,85.65
2023-01-13T12:59:17.558Z,85.99
2023-01-13T13:01:47.367Z,85.83
2023-01-13T13:04:20.106Z,84.60
2023-01-13T13:07:08.752Z,84.15
2023-01-13T13:09:55.455Z,83.02
2023-01-13T13:13:09.305Z,83.66
2023-01-13T13:15:37.286Z,84.52
2023-01-13T13:18:17.461Z,84.35
2023-01-13T13:20:57.966Z,85.46
2023-01-13T13:23:37.972Z,86.02
2023-01-13T13:26:36.901Z,86.39
2023-01-13T13:29:19.712Z,86.30
2023-01-13T13:31:47.322Z,87.28
2023-01-13T13:34:32.760Z,86.29
2023-01-13T13:37:09.066Z,87.04
2023-01-13T13:40:01.164Z,86.60
2023-01-13T13:42:54.853Z,86.35
2023-01-13T13:45:44.192Z,86.11
2023-01-13T13:48:26.865Z,85.55
2023-01-13T13:51:00.263Z,86.10
2023-01-13T13:53:38.954Z,85.71
2023-01-13T13:56:18.004Z,85.37
2023-01-13T13:58:47.947Z,86.34
2023-01-13T14:01:30.195Z,85.74
2023-01-13T14:04:22.249Z,86.18
2023-01-13T14:07:02.366Z,85.95
2023-01-13T14:09:41.106Z,86.64
2023-01-13T14:12:23.007Z,86.69
2023-01-13T14:14:51.413Z,87.80
2023-01-13T14:17:24.752Z,87.79
2023-01-13T14:19:58.352Z,88.12
2023-01-13T14:22:26.858Z,88.81
2023-01-13T14:24:58.529Z,88.50
2023-01-13T14:27:28.045Z,88.37
2023-01-13T14:29:59.439Z,88.31
2023-01-13T14:32:36.121Z,88.35
2023-01-13T14:35:08.087Z,88.80
2023-01-13T14:37:39.155Z,89.11
2023-01-13T14:40:44.543Z,89.41
2023-01-13T14:43:15.374Z,88.96
2023-01-13T14:45:54.825Z,89.34
2023-01-13T14:48:27.099Z,88.89
2023-01-13T14:50:54.888Z,89.55
2023-01-13T14:53:45.230Z,88.63
2023-01-13T14:56:37.744Z,89.78
2023-01-13T14:59:33.856Z,89.77
2023-01-13T15:02:22.530Z,90.02
2023-01-13T15:04:54.011Z,89.97
2023-01-13T15:07:27.168Z,89.99
2023-01-13T15:09:58.585Z,90.05
2023-01-13T15:12:41.441Z,90.39
2023-01-13T15:15:26.337Z,90.46
2023-01-13T15:17:54.204Z,90.74
2023-01-13T15:20:25.075Z,90.67
2023-01-13T15:22:55.183Z,90.40
2023-01-13T15:25:22.912Z,90.58
2023-01-13T15:27:52.670Z,90.21
2023-01-13T15:30:25.137Z,90.77
2023-01-13T15:32:57.619Z,90.62
2023-01-13T15:35:28.449Z,90.41
2023-01-13T15:37:57.517Z,90.48
2023-01-13T15:40:33.255Z,90.67
2023-01-13T15:43:19.439Z,90.59
2023-01-13T15:46:05.988Z,90.63
2023-01-13T15:48:33.967Z,90.62
2023-01-13T15:51:03.646Z,91.02
2023-01-13T15:53:31.518Z,90.71
2023-01-13T15:56:00.434Z,90.82
2023-01-13T15:58:30.708Z,90.41
2023-01-13T16:00:58.472Z,90.42
2023-01-13T16:03:26.195Z,90.40
2023-01-13T16:05:53.800Z,90.69
2023-01-13T16:08:22.986Z,90.56
2023-01-13T16:10:50.998Z,90.68
2023-01-13T16:13:18.997Z,90.21
2023-01-13T16:15:49.724Z,90.13
2023-01-13T16:18:26.758Z,90.48
2023-01-13T16:20:55.334Z,90.24
2023-01-13T16:23:23.482Z,90.67
2023-01-13T16:25:51.663Z,90.59
2023-01-13T16:28:26.197Z,90.31
2023-01-13T16:30:54.418Z,90.30
2023-01-13T16:33:22.184Z,90.49
2023-01-13T16:36:10.807Z,90.38
2023-01-13T16:38:37.831Z,90.58
2023-01-13T16:41:05.746Z,90.46
2023-01-13T16:43:34.398Z,90.42
2023-01-13T16:46:02.084Z,90.46
2023-01-13T16:48:29.868Z,90.22
2023-01-13T16:50:58.170Z,89.85
2023-01-13T16:53:26.256Z,89.83
2023-01-13T16:55:53.877Z,90.02
2023-01-13T16:58:21.629Z,89.78
2023-01-13T17:00:49.290Z,89.92
2023-01-13T17:03:17.174Z,89.93
2023-01-13T17:05:47.698Z,89.93
2023-01-13T17:08:20.684Z,90.17
2023-01-13T17:10:48.452Z,90.53
2023-01-13T17:13:17.356Z,90.90
2023-01-13T17:15:46.006Z,91.04
2023-01-13T17:18:13.795Z,90.35
2023-01-13T17:20:41.507Z,90.74
2023-01-13T17:23:09.113Z,91.30
2023-01-13T17:25:36.897Z,91.15
2023-01-13T17:28:04.642Z,91.62
2023-01-13T17:30:32.581Z,91.63
2023-01-13T17:33:00.274Z,91.54
2023-01-13T17:35:27.841Z,91.45
2023-01-13T17:37:55.888Z,91.89
2023-01-13T17:40:23.505Z,91.88
2023-01-13T17:42:51.204Z,91.66
2023-01-13T17:45:18.876Z,91.73
2023-01-13T17:47:47.552Z,91.25
2023-01-13T17:50:19.283Z,91.58
2023-01-13T17:52:46.873Z,90.90
2023-01-13T17:55:14.649Z,91.10
2023-01-13T17:57:42.225Z,91.37
2023-01-13T18:00:12.515Z,91.00
2023-01-13T18:02:40.174Z,91.55
2023-01-13T18:05:08.177Z,91.08
2023-01-13T18:07:35.762Z,91.10
2023-01-13T18:10:03.431Z,91.38
2023-01-13T18:12:31.129Z,91.54
2023-01-13T18:14:58.700Z,91.37
2023-01-13T18:17:26.350Z,90.91
2023-01-13T18:20:12.477Z,90.94
2023-01-13T18:22:58.511Z,90.73
2023-01-13T18:25:44.650Z,91.44
2023-01-13T18:28:12.193Z,91.38
2023-01-13T18:30:39.783Z,91.55
2023-01-13T18:33:07.746Z,91.70
2023-01-13T18:35:38.657Z,91.89
2023-01-13T18:38:07.018Z,91.65
2023-01-13T18:40:34.595Z,91.32
2023-01-13T18:43:02.187Z,91.59
2023-01-13T18:45:31.882Z,91.45
2023-01-13T18:48:02.741Z,91.89
2023-01-13T18:50:30.681Z,91.44
2023-01-13T18:52:58.878Z,91.77
2023-01-13T18:55:28.679Z,91.37
2023-01-13T18:57:57.250Z,91.52
2023-01-13T19:00:26.981Z,91.75
2023-01-13T19:05:35.389Z,91.97
2023-01-13T19:08:04.066Z,91.00
2023-01-13T19:10:32.801Z,91.02
2023-01-13T19:13:01.730Z,91.01
2023-01-13T19:15:29.843Z,90.92
2023-01-13T19:17:57.569Z,90.48
2023-01-13T19:20:25.131Z,91.06
2023-01-13T19:22:54.629Z,90.43
2023-01-13T19:25:22.974Z,91.01
2023-01-13T19:27:50.525Z,90.46
2023-01-13T19:30:18.572Z,90.91
2023-01-13T19:32:46.144Z,90.81
2023-01-13T19:35:17.809Z,90.46
2023-01-13T19:37:45.817Z,90.59
2023-01-13T19:40:13.955Z,90.54
2023-01-13T19:43:04.378Z,90.19
2023-01-13T19:45:35.169Z,90.61
2023-01-13T19:48:05.324Z,90.54
2023-01-13T19:50:40.468Z,90.66
2023-01-13T19:53:15.776Z,90.73
2023-01-13T19:55:48.568Z,90.74
2023-01-13T19:58:18.967Z,90.31
2023-01-13T20:00:48.444Z,90.42
2023-01-13T20:03:24.300Z,90.32
2023-01-13T20:05:53.409Z,91.10
2023-01-13T20:08:22.799Z,90.53
2023-01-13T20:10:50.369Z,90.68
2023-01-13T20:13:18.125Z,90.45
2023-01-13T20:15:45.788Z,90.39
2023-01-13T20:18:13.390Z,90.30
2023-01-13T20:20:40.955Z,90.29
2023-01-13T20:23:09.605Z,90.62
2023-01-13T20:25:37.254Z,89.92
2023-01-13T20:28:05.273Z,89.69
2023-01-13T20:30:32.895Z,89.85
2023-01-13T20:33:00.777Z,89.93
2023-01-13T20:35:29.922Z,89.76
2023-01-13T20:37:57.533Z,90.17
2023-01-13T20:40:26.015Z,90.00
2023-01-13T20:42:53.794Z,89.91
2023-01-13T20:45:23.375Z,90.21
2023-01-13T20:47:51.038Z,90.01
2023-01-13T20:50:18.861Z,89.83
2023-01-13T20:52:47.865Z,89.93
2023-01-13T20:55:15.552Z,90.61
2023-01-13T20:57:43.599Z,90.73
2023-01-13T21:00:11.662Z,90.60
2023-01-13T21:02:41.118Z,90.90
2023-01-13T21:05:09.885Z,91.52
2023-01-13T21:07:37.471Z,91.35
2023-01-13T21:10:05.954Z,91.37
2023-01-13T21:12:51.993Z,91.61
2023-01-13T21:15:21.927Z,91.73
2023-01-13T21:18:10.679Z,91.93
2023-01-13T21:20:39.135Z,91.64
2023-01-13T21:23:07.356Z,91.92
2023-01-13T21:25:37.272Z,91.45
2023-01-13T21:28:06.061Z,91.57
2023-01-13T21:30:34.264Z,91.68
2023-01-13T21:33:03.986Z,91.62
2023-01-13T21:35:31.871Z,91.96
2023-01-13T21:37:59.591Z,91.62
2023-01-13T21:40:27.578Z,91.56
2023-01-13T21:43:14.158Z,91.56
2023-01-13T21:46:00.366Z,91.74
2023-01-13T21:48:28.086Z,91.29
2023-01-13T21:51:00.302Z,91.53
2023-01-13T21:53:28.078Z,91.33
2023-01-13T21:55:55.634Z,91.83
2023-01-13T21:58:23.319Z,92.03
2023-01-13T22:00:51.103Z,91.35
2023-01-13T22:03:18.847Z,91.35
2023-01-13T22:05:47.038Z,91.69
2023-01-13T22:08:14.723Z,91.91
2023-01-13T22:10:57.785Z,91.70
2023-01-13T22:13:46.226Z,92.05
2023-01-13T22:16:16.107Z,91.46
2023-01-13T22:18:44.197Z,91.85
2023-01-13T22:21:12.184Z,91.39
2023-01-13T22:23:39.805Z,91.07
2023-01-13T22:26:08.854Z,91.33
2023-01-13T22:28:43.090Z,91.08
2023-01-13T22:31:15.714Z,91.33
2023-01-13T22:33:47.074Z,91.21
2023-01-13T22:36:15.636Z,90.89
2023-01-13T22:38:43.259Z,91.25
2023-01-13T22:41:11.253Z,90.89
2023-01-13T22:43:39.225Z,90.94
2023-01-13T22:46:09.770Z,90.91
2023-01-13T22:48:38.799Z,90.68
2023-01-13T22:51:07.533Z,90.69
2023-01-13T22:53:36.071Z,90.72
2023-01-13T22:56:04.760Z,90.81
2023-01-13T22:58:32.613Z,91.02
2023-01-13T23:01:11.632Z,90.84
2023-01-13T23:03:39.405Z,91.45
2023-01-13T23:06:07.076Z,91.58
2023-01-13T23:08:35.248Z,91.19
2023-01-13T23:11:05.072Z,91.28
2023-01-13T23:13:32.819Z,91.81
2023-01-13T23:16:05.991Z,91.77
2023-01-13T23:18:34.156Z,91.68
2023-01-13T23:21:07.050Z,92.61
2023-01-13T23:23:34.940Z,92.12
2023-01-13T23:26:03.608Z,92.62
2023-01-13T23:28:32.607Z,92.60
2023-01-13T23:31:00.310Z,92.50
2023-01-13T23:33:27.895Z,92.53
2023-01-13T23:35:59.958Z,92.97
2023-01-13T23:38:28.462Z,92.52
2023-01-13T23:40:56.451Z,93.21
2023-01-13T23:43:26.405Z,93.04
2023-01-13T23:46:05.327Z,93.58
2023-01-13T23:48:33.670Z,93.28
2023-01-13T23:51:03.612Z,93.15
2023-01-13T23:53:33.819Z,93.62
2023-01-13T23:56:02.641Z,94.08
2023-01-13T23:58:32.026Z,94.10
